createdAt,value
2018-04-14T00:01:22.808Z,102.07
2018-04-14T00:04:25.333Z,86.37
2018-04-14T00:07:27.793Z,86.83
2018-04-14T00:10:30.427Z,78.67
2018-04-14T00:13:32.909Z,93.70
2018-04-14T00:16:35.465Z,95.63
2018-04-14T00:19:37.979Z,104.43
2018-04-14T00:22:40.532Z,87.97
2018-04-14T00:25:43.160Z,91.47
2018-04-14T00:28:45.685Z,97.53
2018-04-14T00:31:48.225Z,91.27
2018-04-14T00:34:50.725Z,115.10
2018-04-14T00:37:53.195Z,106.10
2018-04-14T00:40:55.777Z,105.83
2018-04-14T00:43:58.254Z,101.43
2018-04-14T00:47:00.739Z,104.03
2018-04-14T00:50:03.247Z,97.20
2018-04-14T00:53:17.477Z,101.60
2018-04-14T00:56:19.993Z,100.70
2018-04-14T00:59:22.448Z,93.80
2018-04-14T01:02:24.963Z,95.43
2018-04-14T01:05:27.428Z,97.00
2018-04-14T01:08:29.964Z,102.40
2018-04-14T01:11:32.491Z,94.07
2018-04-14T01:14:35.010Z,103.77
2018-04-14T01:17:37.493Z,97.50
2018-04-14T01:20:40.034Z,95.40
2018-04-14T01:23:42.521Z,100.23
2018-04-14T01:26:45.015Z,98.17
2018-04-14T01:29:47.519Z,102.67
2018-04-14T01:32:50.017Z,104.03
2018-04-14T01:35:52.495Z,108.33
2018-04-14T01:38:55.000Z,108.57
2018-04-14T01:41:57.481Z,119.83
2018-04-14T01:44:59.990Z,109.30
2018-04-14T01:48:02.501Z,106.37
2018-04-14T01:51:04.972Z,117.40
2018-04-14T01:54:07.460Z,114.03
2018-04-14T01:57:09.969Z,120.60
2018-04-14T02:00:12.495Z,114.80
2018-04-14T02:03:14.994Z,127.73
2018-04-14T02:06:17.471Z,118.30
2018-04-14T02:09:19.955Z,120.67
2018-04-14T02:12:22.464Z,115.40
2018-04-14T02:15:24.963Z,123.53
2018-04-14T02:18:27.432Z,114.00
2018-04-14T02:21:30.476Z,129.83
2018-04-14T02:24:32.938Z,111.70
2018-04-14T02:27:35.416Z,129.80
2018-04-14T02:30:37.909Z,115.23
2018-04-14T02:33:40.495Z,125.60
2018-04-14T02:36:42.977Z,124.33
2018-04-14T02:39:45.472Z,123.83
2018-04-14T02:42:48.009Z,114.73
2018-04-14T02:45:50.480Z,126.40
2018-04-14T02:48:52.967Z,128.73
2018-04-14T02:51:55.590Z,133.53
2018-04-14T02:54:58.080Z,136.27
2018-04-14T02:58:00.592Z,122.40
2018-04-14T03:01:03.073Z,128.73
2018-04-14T03:04:06.861Z,131.60
2018-04-14T03:07:09.351Z,119.20
2018-04-14T03:10:11.875Z,121.70
2018-04-14T03:13:14.379Z,132.50
2018-04-14T03:16:16.990Z,134.80
2018-04-14T03:19:19.507Z,133.43
2018-04-14T03:22:21.973Z,131.47
2018-04-14T03:25:24.475Z,136.57
2018-04-14T03:28:27.010Z,134.77
2018-04-14T03:31:29.558Z,131.27
2018-04-14T03:34:32.049Z,124.77
2018-04-14T03:37:34.641Z,149.73
2018-04-14T03:40:37.160Z,127.47
2018-04-14T03:43:39.641Z,135.30
2018-04-14T03:46:42.134Z,135.63
2018-04-14T03:49:44.646Z,131.93
2018-04-14T03:52:47.154Z,131.87
2018-04-14T03:55:49.740Z,136.20
2018-04-14T03:58:52.255Z,136.17
2018-04-14T04:01:54.784Z,147.37
2018-04-14T04:04:57.267Z,146.80
2018-04-14T04:07:59.785Z,145.83
2018-04-14T04:11:02.240Z,139.83
2018-04-14T04:14:04.817Z,143.57
2018-04-14T04:17:07.313Z,144.20
2018-04-14T04:20:21.627Z,140.30
2018-04-14T04:23:36.011Z,149.00
2018-04-14T04:26:38.500Z,147.50
2018-04-14T04:29:40.997Z,147.43
2018-04-14T04:32:43.499Z,148.23
2018-04-14T04:35:45.954Z,148.10
2018-04-14T04:38:48.446Z,151.23
2018-04-14T04:41:50.996Z,137.90
2018-04-14T04:44:53.496Z,131.83
2018-04-14T04:47:56.016Z,133.73
2018-04-14T04:50:58.657Z,141.87
2018-04-14T04:54:01.235Z,138.10
2018-04-14T04:57:03.892Z,143.47
2018-04-14T05:00:06.343Z,126.73
2018-04-14T05:03:08.841Z,137.80
2018-04-14T05:06:11.306Z,125.93
2018-04-14T05:09:13.817Z,129.93
2018-04-14T05:12:16.288Z,131.97
2018-04-14T05:15:18.777Z,120.27
2018-04-14T05:18:21.249Z,118.17
2018-04-14T05:21:23.738Z,124.17
2018-04-14T05:24:26.266Z,122.27
2018-04-14T05:27:28.763Z,119.50
2018-04-14T05:30:31.237Z,116.53
2018-04-14T05:33:33.699Z,119.33
2018-04-14T05:36:36.178Z,113.70
2018-04-14T05:39:38.726Z,113.30
2018-04-14T05:42:41.212Z,126.47
2018-04-14T05:45:43.804Z,116.97
2018-04-14T05:48:46.269Z,119.97
2018-04-14T05:51:48.777Z,120.10
2018-04-14T05:54:51.238Z,111.30
2018-04-14T05:57:53.739Z,123.67
2018-04-14T06:00:56.228Z,100.97
2018-04-14T06:03:58.741Z,110.20
2018-04-14T06:07:01.217Z,116.40
2018-04-14T06:10:03.691Z,106.70
2018-04-14T06:13:06.329Z,107.63
2018-04-14T06:16:08.794Z,112.13
2018-04-14T06:19:11.312Z,107.03
2018-04-14T06:22:13.875Z,102.63
2018-04-14T06:25:16.365Z,101.50
2018-04-14T06:28:18.973Z,103.50
2018-04-14T06:31:21.472Z,99.27
2018-04-14T06:34:24.028Z,96.33
2018-04-14T06:37:26.507Z,104.87
2018-04-14T06:40:29.007Z,95.97
2018-04-14T06:43:31.510Z,97.13
2018-04-14T06:46:34.018Z,97.20
2018-04-14T06:49:36.668Z,89.77
2018-04-14T06:52:39.187Z,97.73
2018-04-14T06:55:41.679Z,93.90
2018-04-14T06:58:44.185Z,91.90
2018-04-14T07:01:46.665Z,88.77
2018-04-14T07:04:49.201Z,82.97
2018-04-14T07:07:51.653Z,80.97
2018-04-14T07:10:54.135Z,89.37
2018-04-14T07:13:57.832Z,84.70
2018-04-14T07:17:00.354Z,84.03
2018-04-14T07:20:02.819Z,71.87
2018-04-14T07:23:06.255Z,78.87
2018-04-14T07:26:08.773Z,68.83
2018-04-14T07:29:11.334Z,72.47
2018-04-14T07:32:13.842Z,69.10
2018-04-14T07:35:16.395Z,75.33
2018-04-14T07:38:18.873Z,74.70
2018-04-14T07:41:21.472Z,61.50
2018-04-14T07:44:23.958Z,56.67
2018-04-14T07:47:26.452Z,66.13
2018-04-14T07:50:28.937Z,65.20
2018-04-14T07:53:31.560Z,64.53
2018-04-14T07:56:34.079Z,63.03
2018-04-14T07:59:36.564Z,67.60
2018-04-14T08:02:39.199Z,63.53
2018-04-14T08:05:41.663Z,65.03
2018-04-14T08:08:44.198Z,69.63
2018-04-14T08:11:46.725Z,66.87
2018-04-14T08:14:53.052Z,64.03
2018-04-14T08:17:55.534Z,62.87
2018-04-14T08:20:58.066Z,65.77
2018-04-14T08:24:00.563Z,59.10
2018-04-14T08:27:03.063Z,64.30
2018-04-14T08:30:05.612Z,64.83
2018-04-14T08:33:08.105Z,67.47
2018-04-14T08:36:13.387Z,72.10
2018-04-14T08:39:16.097Z,68.60
2018-04-14T08:42:18.652Z,68.57
2018-04-14T08:45:21.147Z,74.50
2018-04-14T08:48:23.678Z,76.63
2018-04-14T08:51:26.156Z,66.60
2018-04-14T08:54:28.681Z,70.77
2018-04-14T09:00:56.502Z,71.27
2018-04-14T09:03:59.022Z,72.50
2018-04-14T09:07:01.570Z,70.47
2018-04-14T09:10:04.076Z,67.57
2018-04-14T09:13:06.649Z,73.23
2018-04-14T09:16:09.257Z,64.87
2018-04-14T09:19:11.753Z,70.40
2018-04-14T09:22:14.253Z,72.53
2018-04-14T09:25:16.882Z,60.43
2018-04-14T09:28:19.457Z,61.70
2018-04-14T09:31:21.967Z,67.00
2018-04-14T09:34:24.470Z,62.67
2018-04-14T09:37:26.985Z,55.80
2018-04-14T09:40:29.527Z,60.90
2018-04-14T09:43:31.980Z,62.50
2018-04-14T09:46:34.532Z,63.97
2018-04-14T09:49:37.040Z,58.83
2018-04-14T09:52:39.580Z,61.10
2018-04-14T09:55:42.071Z,63.57
2018-04-14T09:58:44.549Z,62.67
2018-04-14T10:01:51.882Z,61.40
2018-04-14T10:04:54.429Z,61.00
2018-04-14T10:07:57.028Z,61.70
2018-04-14T10:10:59.555Z,59.23
2018-04-14T10:14:02.031Z,58.53
2018-04-14T10:17:04.555Z,58.23
2018-04-14T10:20:07.020Z,49.90
2018-04-14T10:23:09.511Z,68.47
2018-04-14T10:26:12.024Z,59.60
2018-04-14T10:29:14.510Z,61.97
2018-04-14T10:32:17.140Z,60.00
2018-04-14T10:35:19.686Z,54.10
2018-04-14T10:38:22.180Z,60.60
2018-04-14T10:41:24.651Z,61.23
2018-04-14T10:44:27.156Z,59.00
2018-04-14T10:47:29.731Z,61.53
2018-04-14T10:50:32.217Z,62.47
2018-04-14T10:53:34.816Z,59.63
2018-04-14T10:56:37.314Z,54.33
2018-04-14T10:59:39.827Z,56.03
2018-04-14T11:02:42.297Z,54.50
2018-04-14T11:05:44.832Z,61.83
2018-04-14T11:08:47.325Z,50.13
2018-04-14T11:11:49.827Z,61.70
2018-04-14T11:14:52.398Z,63.37
2018-04-14T11:17:54.941Z,55.70
2018-04-14T11:20:57.513Z,56.50
2018-04-14T11:24:00.016Z,56.87
2018-04-14T11:27:02.551Z,56.17
2018-04-14T11:30:05.693Z,60.47
2018-04-14T11:33:08.208Z,52.57
2018-04-14T11:36:10.721Z,55.87
2018-04-14T11:39:13.174Z,53.67
2018-04-14T11:42:15.692Z,56.93
2018-04-14T11:45:18.251Z,54.53
2018-04-14T11:48:20.783Z,55.83
2018-04-14T11:51:23.258Z,57.67
2018-04-14T11:54:25.758Z,61.53
2018-04-14T11:57:28.256Z,55.20
2018-04-14T12:00:30.762Z,54.07
2018-04-14T12:03:33.396Z,56.80
2018-04-14T12:06:37.037Z,59.70
2018-04-14T12:09:39.558Z,55.40
2018-04-14T12:12:42.163Z,52.47
2018-04-14T12:15:44.648Z,54.73
2018-04-14T12:18:47.233Z,58.93
2018-04-14T12:21:49.749Z,62.20
2018-04-14T12:24:52.358Z,58.33
2018-04-14T12:27:54.923Z,59.90
2018-04-14T12:30:57.439Z,57.33
2018-04-14T12:33:59.993Z,58.60
2018-04-14T12:37:02.457Z,63.83
2018-04-14T12:40:05.001Z,58.40
2018-04-14T12:43:07.589Z,59.73
2018-04-14T12:46:10.073Z,54.87
2018-04-14T12:49:12.558Z,56.90
2018-04-14T12:52:15.109Z,61.33
2018-04-14T12:55:17.588Z,57.47
2018-04-14T12:58:20.124Z,60.70
2018-04-14T13:01:22.616Z,58.77
2018-04-14T13:04:25.156Z,60.73
2018-04-14T13:07:27.621Z,63.17
2018-04-14T13:10:30.111Z,61.13
2018-04-14T13:13:32.560Z,60.43
2018-04-14T13:16:35.054Z,67.70
2018-04-14T13:19:37.672Z,65.60
2018-04-14T13:22:40.192Z,64.87
2018-04-14T13:25:44.563Z,60.33
2018-04-14T13:28:47.148Z,64.83
2018-04-14T13:31:49.760Z,61.43
2018-04-14T13:34:52.213Z,63.03
2018-04-14T13:37:54.714Z,75.77
2018-04-14T13:40:57.229Z,62.23
2018-04-14T13:43:59.701Z,67.10
2018-04-14T13:47:02.205Z,68.37
2018-04-14T13:50:04.727Z,66.70
2018-04-14T13:53:07.258Z,59.87
2018-04-14T13:56:10.653Z,61.97
2018-04-14T13:59:13.118Z,62.17
2018-04-14T14:02:16.387Z,59.47
2018-04-14T14:05:18.871Z,62.27
2018-04-14T14:08:21.367Z,61.33
2018-04-14T14:11:23.894Z,63.17
2018-04-14T14:14:26.406Z,65.60
2018-04-14T14:17:28.961Z,66.67
2018-04-14T14:20:31.485Z,61.20
2018-04-14T14:23:34.025Z,63.17
2018-04-14T14:26:36.575Z,59.30
2018-04-14T14:29:39.061Z,68.00
2018-04-14T14:32:41.578Z,66.20
2018-04-14T14:35:44.099Z,66.53
2018-04-14T14:38:46.616Z,66.67
2018-04-14T14:41:49.180Z,64.80
2018-04-14T14:44:52.388Z,62.03
2018-04-14T14:47:54.861Z,60.73
2018-04-14T14:50:57.348Z,68.30
2018-04-14T14:53:59.881Z,67.90
2018-04-14T14:57:02.370Z,64.43
2018-04-14T15:00:04.971Z,67.57
2018-04-14T15:03:07.527Z,68.57
2018-04-14T15:06:10.037Z,65.07
2018-04-14T15:09:13.392Z,69.77
2018-04-14T15:12:15.950Z,66.20
2018-04-14T15:15:18.490Z,67.73
2018-04-14T15:18:21.068Z,67.87
2018-04-14T15:21:23.572Z,63.67
2018-04-14T15:24:26.248Z,66.03
2018-04-14T15:27:28.800Z,66.57
2018-04-14T15:30:31.350Z,66.17
2018-04-14T15:33:33.872Z,67.23
2018-04-14T15:36:36.424Z,66.43
2018-04-14T15:39:38.909Z,71.73
2018-04-14T15:42:42.024Z,64.07
2018-04-14T15:45:44.773Z,69.27
2018-04-14T15:48:47.367Z,67.87
2018-04-14T15:51:50.009Z,79.40
2018-04-14T15:54:52.812Z,70.77
2018-04-14T15:57:55.441Z,66.93
2018-04-14T16:00:58.093Z,68.97
2018-04-14T16:04:09.657Z,71.43
2018-04-14T16:07:04.822Z,66.77
2018-04-14T16:10:07.601Z,80.33
2018-04-14T16:13:10.712Z,78.73
2018-04-14T16:16:13.251Z,73.20
2018-04-14T16:19:15.936Z,72.83
2018-04-14T16:22:18.514Z,77.10
2018-04-14T16:25:21.098Z,69.13
2018-04-14T16:28:23.731Z,68.70
2018-04-14T16:31:27.030Z,74.90
2018-04-14T16:34:29.644Z,70.23
2018-04-14T16:37:32.455Z,66.63
2018-04-14T16:40:35.119Z,72.27
2018-04-14T16:43:37.740Z,71.13
2018-04-14T16:46:40.543Z,73.37
2018-04-14T16:49:43.151Z,70.50
2018-04-14T16:52:45.775Z,71.93
2018-04-14T16:55:48.573Z,72.40
2018-04-14T16:58:51.198Z,76.70
2018-04-14T17:01:54.628Z,76.80
2018-04-14T17:04:57.361Z,66.23
2018-04-14T17:07:59.975Z,67.90
2018-04-14T17:11:02.529Z,67.83
2018-04-14T17:14:05.091Z,76.30
2018-04-14T17:17:07.743Z,67.83
2018-04-14T17:20:10.372Z,70.27
2018-04-14T17:23:13.033Z,70.23
2018-04-14T17:26:15.620Z,73.77
2018-04-14T17:29:18.253Z,75.37
2018-04-14T17:32:20.964Z,66.20
2018-04-14T17:35:24.089Z,73.27
2018-04-14T17:38:27.552Z,76.27
2018-04-14T17:41:30.131Z,68.63
2018-04-14T17:44:32.718Z,70.87
2018-04-14T17:47:35.277Z,67.13
2018-04-14T17:50:37.877Z,63.17
2018-04-14T17:53:40.417Z,64.23
2018-04-14T17:56:42.924Z,59.77
2018-04-14T17:59:45.515Z,62.53
2018-04-14T18:02:48.097Z,62.23
2018-04-14T18:05:50.786Z,60.77
2018-04-14T18:08:53.431Z,65.70
2018-04-14T18:11:55.995Z,62.33
2018-04-14T18:14:58.528Z,59.90
2018-04-14T18:18:01.036Z,69.30
2018-04-14T18:21:03.582Z,58.83
2018-04-14T18:24:06.147Z,59.60
2018-04-14T18:27:08.690Z,64.53
2018-04-14T18:30:11.372Z,60.10
2018-04-14T18:33:13.877Z,58.93
2018-04-14T18:36:16.411Z,62.63
2018-04-14T18:39:18.919Z,59.97
2018-04-14T18:42:21.456Z,61.10
2018-04-14T18:45:24.003Z,60.13
2018-04-14T18:48:26.546Z,60.20
2018-04-14T18:51:29.075Z,58.43
2018-04-14T18:54:31.557Z,60.83
2018-04-14T18:57:34.123Z,56.10
2018-04-14T19:00:36.592Z,62.97
2018-04-14T19:03:39.170Z,63.90
2018-04-14T19:06:41.815Z,68.00
2018-04-14T19:09:44.315Z,86.27
2018-04-14T19:12:46.847Z,69.00
2018-04-14T19:15:49.412Z,62.43
2018-04-14T19:18:51.965Z,61.50
2018-04-14T19:21:54.459Z,64.30
2018-04-14T19:24:56.998Z,67.27
2018-04-14T19:27:59.459Z,68.40
2018-04-14T19:31:02.008Z,67.60
2018-04-14T19:34:04.552Z,69.97
2018-04-14T19:37:07.054Z,64.30
2018-04-14T19:40:09.544Z,64.80
2018-04-14T19:43:12.073Z,65.93
2018-04-14T19:46:14.596Z,69.93
2018-04-14T19:49:17.094Z,69.67
2018-04-14T19:52:19.651Z,66.90
2018-04-14T19:55:22.164Z,72.43
2018-04-14T19:58:24.739Z,71.17
2018-04-14T20:01:27.198Z,64.03
2018-04-14T20:04:29.822Z,62.87
2018-04-14T20:07:32.323Z,64.70
2018-04-14T20:10:34.876Z,72.53
2018-04-14T20:13:37.558Z,63.10
2018-04-14T20:16:40.129Z,66.13
2018-04-14T20:19:42.665Z,64.17
2018-04-14T20:22:45.222Z,68.07
2018-04-14T20:25:47.713Z,67.07
2018-04-14T20:28:50.599Z,72.00
2018-04-14T20:31:53.243Z,68.20
2018-04-14T20:34:55.838Z,65.80
2018-04-14T20:37:58.377Z,73.07
2018-04-14T20:41:00.937Z,70.50
2018-04-14T20:44:03.497Z,61.40
2018-04-14T20:47:05.997Z,65.20
2018-04-14T20:50:08.550Z,65.23
2018-04-14T20:53:11.139Z,65.73
2018-04-14T20:56:13.670Z,66.73
2018-04-14T20:59:16.213Z,69.50
2018-04-14T21:02:18.865Z,69.53
2018-04-14T21:05:21.448Z,57.83
2018-04-14T21:08:24.011Z,59.90
2018-04-14T21:11:26.539Z,61.10
2018-04-14T21:14:29.093Z,66.30
2018-04-14T21:17:31.665Z,59.07
2018-04-14T21:20:34.127Z,63.87
2018-04-14T21:23:36.706Z,58.40
2018-04-14T21:26:39.197Z,58.43
2018-04-14T21:29:41.686Z,62.70
2018-04-14T21:32:44.183Z,66.77
2018-04-14T21:35:46.774Z,60.67
2018-04-14T21:38:49.281Z,63.57
2018-04-14T21:41:51.812Z,59.97
2018-04-14T21:44:54.306Z,58.03
2018-04-14T21:47:56.815Z,55.30
2018-04-14T21:50:59.323Z,59.47
2018-04-14T21:54:01.822Z,50.83
2018-04-14T21:57:04.343Z,48.27
2018-04-14T22:00:06.874Z,55.87
2018-04-14T22:03:09.376Z,51.07
2018-04-14T22:06:11.897Z,48.73
2018-04-14T22:09:14.452Z,51.93
2018-04-14T22:12:16.949Z,46.47
2018-04-14T22:15:19.476Z,45.77
2018-04-14T22:18:21.968Z,52.73
2018-04-14T22:21:24.465Z,49.40
2018-04-14T22:24:26.959Z,47.17
2018-04-14T22:27:29.499Z,52.63
2018-04-14T22:30:31.991Z,52.23
2018-04-14T22:33:34.621Z,45.60
2018-04-14T22:36:37.208Z,46.80
2018-04-14T22:39:39.728Z,49.73
2018-04-14T22:42:42.272Z,47.83
2018-04-14T22:45:44.843Z,49.70
2018-04-14T22:48:47.304Z,51.80
2018-04-14T22:51:49.818Z,48.47
2018-04-14T22:54:52.384Z,55.23
2018-04-14T22:57:54.844Z,50.23
2018-04-14T23:00:57.365Z,53.83
2018-04-14T23:03:59.931Z,52.50
2018-04-14T23:07:02.456Z,51.10
2018-04-14T23:10:04.990Z,54.43
2018-04-14T23:13:07.653Z,57.17
2018-04-14T23:16:10.117Z,54.70
2018-04-14T23:19:12.595Z,62.80
2018-04-14T23:22:15.153Z,63.13
2018-04-14T23:25:17.633Z,59.47
2018-04-14T23:28:20.142Z,57.40
2018-04-14T23:31:22.723Z,67.43
2018-04-14T23:34:25.285Z,61.77
2018-04-14T23:37:27.846Z,62.20
2018-04-14T23:40:30.415Z,65.43
2018-04-14T23:43:32.976Z,68.90
2018-04-14T23:46:35.535Z,70.23
2018-04-14T23:49:38.040Z,61.63
2018-04-14T23:52:40.572Z,60.63
2018-04-14T23:55:43.057Z,65.93
2018-04-14T23:58:45.555Z,66.07
